sensor_id;sensor_type;location;lat;lon;timestamp;P1;durP1;ratioP1;P2;durP2;ratioP2
11042;SDS011;5574;48.786;10.120;2022-09-01T00:02:05;11.48;;;10.35;;
11042;SDS011;5574;48.786;10.120;2022-09-01T00:04:33;13.50;;;9.95;;
11042;SDS011;5574;48.786;10.120;2022-09-01T00:07:02;10.77;;;9.65;;
11042;SDS011;5574;48.786;10.120;2022-09-01T00:09:31;11.52;;;10.32;;
11042;SDS011;5574;48.786;10.120;2022-09-01T00:11:58;10.13;;;9.20;;
11042;SDS011;5574;48.786;10.120;2022-09-01T00:14:26;10.48;;;9.48;;
11042;SDS011;5574;48.786;10.120;2022-09-01T00:16:55;11.15;;;10.05;;
11042;SDS011;5574;48.786;10.120;2022-09-01T00:19:23;11.82;;;10.57;;
11042;SDS011;5574;48.786;10.120;2022-09-01T00:21:50;11.02;;;9.93;;
11042;SDS011;5574;48.786;10.120;2022-09-01T00:24:17;10.70;;;9.68;;
11042;SDS011;5574;48.786;10.120;2022-09-01T00:26:46;10.68;;;9.57;;
11042;SDS011;5574;48.786;10.120;2022-09-01T00:29:13;11.48;;;10.38;;
11042;SDS011;5574;48.786;10.120;2022-09-01T00:31:40;11.07;;;9.98;;
11042;SDS011;5574;48.786;10.120;2022-09-01T00:34:07;11.07;;;9.98;;
11042;SDS011;5574;48.786;10.120;2022-09-01T00:36:34;11.18;;;9.93;;
11042;SDS011;5574;48.786;10.120;2022-09-01T00:39:01;10.52;;;9.52;;
11042;SDS011;5574;48.786;10.120;2022-09-01T00:41:30;10.48;;;9.48;;
11042;SDS011;5574;48.786;10.120;2022-09-01T00:44:00;10.23;;;9.23;;
11042;SDS011;5574;48.786;10.120;2022-09-01T00:46:31;11.38;;;9.82;;
11042;SDS011;5574;48.786;10.120;2022-09-01T00:49:00;11.40;;;10.27;;
11042;SDS011;5574;48.786;10.120;2022-09-01T00:51:29;11.75;;;10.65;;
11042;SDS011;5574;48.786;10.120;2022-09-01T00:53:56;10.90;;;9.80;;
11042;SDS011;5574;48.786;10.120;2022-09-01T00:56:25;12.05;;;10.95;;
11042;SDS011;5574;48.786;10.120;2022-09-01T00:58:52;12.10;;;10.88;;
11042;SDS011;5574;48.786;10.120;2022-09-01T01:01:21;12.75;;;11.45;;
11042;SDS011;5574;48.786;10.120;2022-09-01T01:03:48;13.80;;;12.48;;
11042;SDS011;5574;48.786;10.120;2022-09-01T01:06:15;14.43;;;13.00;;
11042;SDS011;5574;48.786;10.120;2022-09-01T01:08:45;16.63;;;14.93;;
11042;SDS011;5574;48.786;10.120;2022-09-01T01:11:22;16.83;;;15.02;;
11042;SDS011;5574;48.786;10.120;2022-09-01T01:13:52;17.80;;;15.90;;
11042;SDS011;5574;48.786;10.120;2022-09-01T01:16:23;17.45;;;15.65;;
11042;SDS011;5574;48.786;10.120;2022-09-01T01:18:52;18.23;;;16.23;;
11042;SDS011;5574;48.786;10.120;2022-09-01T01:21:21;18.33;;;16.40;;
11042;SDS011;5574;48.786;10.120;2022-09-01T01:24:15;16.48;;;14.60;;
11042;SDS011;5574;48.786;10.120;2022-09-01T01:26:46;18.05;;;15.95;;
11042;SDS011;5574;48.786;10.120;2022-09-01T01:29:13;17.10;;;15.30;;
11042;SDS011;5574;48.786;10.120;2022-09-01T01:31:41;15.10;;;13.50;;
11042;SDS011;5574;48.786;10.120;2022-09-01T01:34:08;16.88;;;15.18;;
11042;SDS011;5574;48.786;10.120;2022-09-01T01:36:37;16.63;;;14.75;;
11042;SDS011;5574;48.786;10.120;2022-09-01T01:39:07;16.50;;;14.80;;
11042;SDS011;5574;48.786;10.120;2022-09-01T01:41:38;16.67;;;14.98;;
11042;SDS011;5574;48.786;10.120;2022-09-01T01:44:09;16.15;;;14.55;;
11042;SDS011;5574;48.786;10.120;2022-09-01T01:46:39;16.27;;;14.57;;
11042;SDS011;5574;48.786;10.120;2022-09-01T01:49:08;15.68;;;14.07;;
11042;SDS011;5574;48.786;10.120;2022-09-01T01:51:37;15.95;;;14.35;;
11042;SDS011;5574;48.786;10.120;2022-09-01T01:54:05;15.80;;;14.15;;
11042;SDS011;5574;48.786;10.120;2022-09-01T01:56:32;14.73;;;13.30;;
11042;SDS011;5574;48.786;10.120;2022-09-01T01:59:04;16.20;;;14.52;;
11042;SDS011;5574;48.786;10.120;2022-09-01T02:01:31;15.15;;;13.52;;
11042;SDS011;5574;48.786;10.120;2022-09-01T02:03:59;15.27;;;13.68;;
11042;SDS011;5574;48.786;10.120;2022-09-01T02:06:30;14.77;;;13.25;;
11042;SDS011;5574;48.786;10.120;2022-09-01T02:08:59;15.05;;;13.45;;
11042;SDS011;5574;48.786;10.120;2022-09-01T02:11:28;14.95;;;13.35;;
11042;SDS011;5574;48.786;10.120;2022-09-01T02:13:58;13.88;;;12.45;;
11042;SDS011;5574;48.786;10.120;2022-09-01T02:16:28;14.48;;;12.52;;
11042;SDS011;5574;48.786;10.120;2022-09-01T02:18:57;14.93;;;13.43;;
11042;SDS011;5574;48.786;10.120;2022-09-01T02:21:25;14.48;;;12.82;;
11042;SDS011;5574;48.786;10.120;2022-09-01T02:23:54;14.70;;;13.18;;
11042;SDS011;5574;48.786;10.120;2022-09-01T02:26:24;15.38;;;13.77;;
11042;SDS011;5574;48.786;10.120;2022-09-01T02:28:54;15.02;;;13.43;;
11042;SDS011;5574;48.786;10.120;2022-09-01T02:31:21;14.52;;;13.13;;
11042;SDS011;5574;48.786;10.120;2022-09-01T02:33:50;15.52;;;13.90;;
11042;SDS011;5574;48.786;10.120;2022-09-01T02:36:18;14.02;;;12.63;;
11042;SDS011;5574;48.786;10.120;2022-09-01T02:38:46;14.10;;;12.70;;
11042;SDS011;5574;48.786;10.120;2022-09-01T02:41:13;14.05;;;12.60;;
11042;SDS011;5574;48.786;10.120;2022-09-01T02:43:45;14.93;;;13.32;;
11042;SDS011;5574;48.786;10.120;2022-09-01T02:46:12;14.60;;;13.10;;
11042;SDS011;5574;48.786;10.120;2022-09-01T02:48:40;15.30;;;13.70;;
11042;SDS011;5574;48.786;10.120;2022-09-01T02:51:12;14.15;;;12.75;;
11042;SDS011;5574;48.786;10.120;2022-09-01T02:53:41;14.50;;;12.63;;
11042;SDS011;5574;48.786;10.120;2022-09-01T02:56:16;14.95;;;13.45;;
11042;SDS011;5574;48.786;10.120;2022-09-01T02:58:47;15.27;;;13.68;;
11042;SDS011;5574;48.786;10.120;2022-09-01T03:01:16;15.00;;;13.48;;
11042;SDS011;5574;48.786;10.120;2022-09-01T03:03:46;15.52;;;13.90;;
11042;SDS011;5574;48.786;10.120;2022-09-01T03:06:14;16.23;;;14.57;;
11042;SDS011;5574;48.786;10.120;2022-09-01T03:08:48;15.38;;;13.85;;
11042;SDS011;5574;48.786;10.120;2022-09-01T03:11:15;15.60;;;13.88;;
11042;SDS011;5574;48.786;10.120;2022-09-01T03:13:43;15.45;;;13.63;;
11042;SDS011;5574;48.786;10.120;2022-09-01T03:16:10;15.70;;;13.60;;
11042;SDS011;5574;48.786;10.120;2022-09-01T03:18:37;15.18;;;13.55;;
11042;SDS011;5574;48.786;10.120;2022-09-01T03:21:05;15.20;;;13.70;;
11042;SDS011;5574;48.786;10.120;2022-09-01T03:23:35;15.20;;;13.70;;
11042;SDS011;5574;48.786;10.120;2022-09-01T03:26:02;16.67;;;14.98;;
11042;SDS011;5574;48.786;10.120;2022-09-01T03:28:29;15.57;;;14.07;;
11042;SDS011;5574;48.786;10.120;2022-09-01T03:30:56;15.43;;;13.82;;
11042;SDS011;5574;48.786;10.120;2022-09-01T03:33:24;16.77;;;14.82;;
11042;SDS011;5574;48.786;10.120;2022-09-01T03:35:52;15.30;;;13.80;;
11042;SDS011;5574;48.786;10.120;2022-09-01T03:38:20;15.27;;;13.70;;
11042;SDS011;5574;48.786;10.120;2022-09-01T03:40:50;15.25;;;13.65;;
11042;SDS011;5574;48.786;10.120;2022-09-01T03:43:19;15.52;;;13.93;;
11042;SDS011;5574;48.786;10.120;2022-09-01T03:45:51;15.02;;;13.45;;
11042;SDS011;5574;48.786;10.120;2022-09-01T03:48:19;15.20;;;13.43;;
11042;SDS011;5574;48.786;10.120;2022-09-01T03:50:46;15.95;;;14.27;;
11042;SDS011;5574;48.786;10.120;2022-09-01T03:53:15;16.20;;;14.43;;
11042;SDS011;5574;48.786;10.120;2022-09-01T03:55:45;16.77;;;14.95;;
11042;SDS011;5574;48.786;10.120;2022-09-01T03:58:15;15.60;;;14.00;;
11042;SDS011;5574;48.786;10.120;2022-09-01T04:00:44;15.38;;;13.77;;
11042;SDS011;5574;48.786;10.120;2022-09-01T04:03:13;15.50;;;13.50;;
11042;SDS011;5574;48.786;10.120;2022-09-01T04:05:47;15.48;;;13.88;;
11042;SDS011;5574;48.786;10.120;2022-09-01T04:08:15;15.50;;;13.18;;
11042;SDS011;5574;48.786;10.120;2022-09-01T04:10:43;15.50;;;13.93;;
11042;SDS011;5574;48.786;10.120;2022-09-01T04:13:15;13.60;;;12.27;;
11042;SDS011;5574;48.786;10.120;2022-09-01T04:15:42;14.80;;;13.30;;
11042;SDS011;5574;48.786;10.120;2022-09-01T04:18:09;14.23;;;12.73;;
11042;SDS011;5574;48.786;10.120;2022-09-01T04:20:44;14.05;;;12.65;;
11042;SDS011;5574;48.786;10.120;2022-09-01T04:23:15;13.90;;;12.50;;
11042;SDS011;5574;48.786;10.120;2022-09-01T04:25:47;13.50;;;12.20;;
11042;SDS011;5574;48.786;10.120;2022-09-01T04:28:17;14.73;;;13.20;;
11042;SDS011;5574;48.786;10.120;2022-09-01T04:30:49;14.07;;;12.68;;
11042;SDS011;5574;48.786;10.120;2022-09-01T04:33:19;13.93;;;12.32;;
11042;SDS011;5574;48.786;10.120;2022-09-01T04:35:46;13.57;;;12.18;;
11042;SDS011;5574;48.786;10.120;2022-09-01T04:38:14;13.68;;;12.35;;
11042;SDS011;5574;48.786;10.120;2022-09-01T04:40:42;14.00;;;12.43;;
11042;SDS011;5574;48.786;10.120;2022-09-01T04:43:08;12.98;;;11.68;;
11042;SDS011;5574;48.786;10.120;2022-09-01T04:45:37;13.48;;;12.18;;
11042;SDS011;5574;48.786;10.120;2022-09-01T04:48:04;14.30;;;12.90;;
11042;SDS011;5574;48.786;10.120;2022-09-01T04:50:31;15.05;;;13.45;;
11042;SDS011;5574;48.786;10.120;2022-09-01T04:53:05;14.32;;;12.95;;
11042;SDS011;5574;48.786;10.120;2022-09-01T04:55:36;13.32;;;12.02;;
11042;SDS011;5574;48.786;10.120;2022-09-01T04:58:07;14.10;;;12.40;;
11042;SDS011;5574;48.786;10.120;2022-09-01T05:00:39;14.20;;;12.80;;
11042;SDS011;5574;48.786;10.120;2022-09-01T05:03:06;14.13;;;12.63;;
11042;SDS011;5574;48.786;10.120;2022-09-01T05:05:38;14.23;;;12.82;;
11042;SDS011;5574;48.786;10.120;2022-09-01T05:08:07;14.30;;;12.80;;
11042;SDS011;5574;48.786;10.120;2022-09-01T05:10:38;13.70;;;12.18;;
11042;SDS011;5574;48.786;10.120;2022-09-01T05:13:07;13.75;;;12.30;;
11042;SDS011;5574;48.786;10.120;2022-09-01T05:15:37;14.30;;;12.88;;
11042;SDS011;5574;48.786;10.120;2022-09-01T05:18:11;14.98;;;13.43;;
11042;SDS011;5574;48.786;10.120;2022-09-01T05:20:39;15.38;;;13.52;;
11042;SDS011;5574;48.786;10.120;2022-09-01T05:23:08;13.50;;;12.20;;
11042;SDS011;5574;48.786;10.120;2022-09-01T05:25:38;15.02;;;12.38;;
11042;SDS011;5574;48.786;10.120;2022-09-01T05:28:06;15.35;;;13.00;;
11042;SDS011;5574;48.786;10.120;2022-09-01T05:30:33;16.33;;;13.20;;
11042;SDS011;5574;48.786;10.120;2022-09-01T05:33:04;14.35;;;12.38;;
11042;SDS011;5574;48.786;10.120;2022-09-01T05:35:35;14.13;;;12.60;;
11042;SDS011;5574;48.786;10.120;2022-09-01T05:38:04;12.38;;;11.15;;
11042;SDS011;5574;48.786;10.120;2022-09-01T05:40:35;13.50;;;12.10;;
11042;SDS011;5574;48.786;10.120;2022-09-01T05:43:05;22.40;;;12.70;;
11042;SDS011;5574;48.786;10.120;2022-09-01T05:45:35;14.02;;;12.40;;
11042;SDS011;5574;48.786;10.120;2022-09-01T05:48:04;12.45;;;11.15;;
11042;SDS011;5574;48.786;10.120;2022-09-01T05:50:33;20.77;;;12.13;;
11042;SDS011;5574;48.786;10.120;2022-09-01T05:53:02;15.27;;;10.93;;
11042;SDS011;5574;48.786;10.120;2022-09-01T05:55:40;11.93;;;10.65;;
11042;SDS011;5574;48.786;10.120;2022-09-01T05:58:07;17.50;;;11.87;;
11042;SDS011;5574;48.786;10.120;2022-09-01T06:00:37;11.65;;;10.55;;
11042;SDS011;5574;48.786;10.120;2022-09-01T06:03:05;15.45;;;11.25;;
11042;SDS011;5574;48.786;10.120;2022-09-01T06:05:33;13.15;;;10.50;;
11042;SDS011;5574;48.786;10.120;2022-09-01T06:08:01;12.75;;;10.45;;
11042;SDS011;5574;48.786;10.120;2022-09-01T06:10:29;13.60;;;10.95;;
11042;SDS011;5574;48.786;10.120;2022-09-01T06:12:57;16.70;;;11.50;;
11042;SDS011;5574;48.786;10.120;2022-09-01T06:15:26;11.60;;;10.50;;
11042;SDS011;5574;48.786;10.120;2022-09-01T06:17:54;12.27;;;10.98;;
11042;SDS011;5574;48.786;10.120;2022-09-01T06:20:23;16.00;;;11.38;;
11042;SDS011;5574;48.786;10.120;2022-09-01T06:22:50;13.60;;;10.30;;
11042;SDS011;5574;48.786;10.120;2022-09-01T06:25:17;11.25;;;10.00;;
11042;SDS011;5574;48.786;10.120;2022-09-01T06:27:44;11.60;;;10.50;;
11042;SDS011;5574;48.786;10.120;2022-09-01T06:30:12;14.68;;;10.52;;
11042;SDS011;5574;48.786;10.120;2022-09-01T06:32:40;11.75;;;10.50;;
11042;SDS011;5574;48.786;10.120;2022-09-01T06:35:08;15.88;;;10.45;;
11042;SDS011;5574;48.786;10.120;2022-09-01T06:37:37;11.10;;;10.00;;
11042;SDS011;5574;48.786;10.120;2022-09-01T06:40:08;18.88;;;11.07;;
11042;SDS011;5574;48.786;10.120;2022-09-01T06:42:41;10.38;;;9.38;;
11042;SDS011;5574;48.786;10.120;2022-09-01T06:45:09;10.27;;;9.27;;
11042;SDS011;5574;48.786;10.120;2022-09-01T06:47:36;9.65;;;8.75;;
11042;SDS011;5574;48.786;10.120;2022-09-01T06:50:03;9.00;;;8.15;;
11042;SDS011;5574;48.786;10.120;2022-09-01T06:52:32;8.82;;;7.93;;
11042;SDS011;5574;48.786;10.120;2022-09-01T06:55:01;10.75;;;9.13;;
11042;SDS011;5574;48.786;10.120;2022-09-01T06:57:27;10.52;;;8.45;;
11042;SDS011;5574;48.786;10.120;2022-09-01T06:59:54;10.07;;;6.55;;
11042;SDS011;5574;48.786;10.120;2022-09-01T07:02:21;7.50;;;6.80;;
11042;SDS011;5574;48.786;10.120;2022-09-01T07:04:48;18.88;;;7.82;;
11042;SDS011;5574;48.786;10.120;2022-09-01T07:07:15;7.07;;;6.43;;
11042;SDS011;5574;48.786;10.120;2022-09-01T07:09:42;6.95;;;6.30;;
11042;SDS011;5574;48.786;10.120;2022-09-01T07:12:12;6.82;;;6.22;;
11042;SDS011;5574;48.786;10.120;2022-09-01T07:14:44;6.88;;;6.28;;
11042;SDS011;5574;48.786;10.120;2022-09-01T07:17:12;6.85;;;6.15;;
11042;SDS011;5574;48.786;10.120;2022-09-01T07:19:39;6.35;;;5.75;;
11042;SDS011;5574;48.786;10.120;2022-09-01T07:22:06;9.32;;;6.70;;
11042;SDS011;5574;48.786;10.120;2022-09-01T07:24:33;5.78;;;5.28;;
11042;SDS011;5574;48.786;10.120;2022-09-01T07:27:00;7.47;;;5.45;;
11042;SDS011;5574;48.786;10.120;2022-09-01T07:29:28;6.20;;;5.57;;
11042;SDS011;5574;48.786;10.120;2022-09-01T07:31:54;6.30;;;5.80;;
11042;SDS011;5574;48.786;10.120;2022-09-01T07:34:21;14.75;;;6.90;;
11042;SDS011;5574;48.786;10.120;2022-09-01T07:36:49;8.75;;;5.90;;
11042;SDS011;5574;48.786;10.120;2022-09-01T07:39:21;6.30;;;5.70;;
11042;SDS011;5574;48.786;10.120;2022-09-01T07:41:48;6.60;;;6.10;;
11042;SDS011;5574;48.786;10.120;2022-09-01T07:44:15;10.40;;;6.80;;
11042;SDS011;5574;48.786;10.120;2022-09-01T07:46:43;8.02;;;6.28;;
11042;SDS011;5574;48.786;10.120;2022-09-01T07:49:10;6.55;;;6.00;;
11042;SDS011;5574;48.786;10.120;2022-09-01T07:51:36;7.72;;;7.05;;
11042;SDS011;5574;48.786;10.120;2022-09-01T07:54:03;8.02;;;7.20;;
11042;SDS011;5574;48.786;10.120;2022-09-01T07:56:30;8.25;;;7.22;;
11042;SDS011;5574;48.786;10.120;2022-09-01T07:58:57;8.30;;;7.13;;
11042;SDS011;5574;48.786;10.120;2022-09-01T08:01:26;9.18;;;7.07;;
11042;SDS011;5574;48.786;10.120;2022-09-01T08:03:55;24.33;;;9.50;;
11042;SDS011;5574;48.786;10.120;2022-09-01T08:06:25;8.40;;;7.57;;
11042;SDS011;5574;48.786;10.120;2022-09-01T08:08:55;7.18;;;6.57;;
11042;SDS011;5574;48.786;10.120;2022-09-01T08:11:25;8.15;;;7.35;;
11042;SDS011;5574;48.786;10.120;2022-09-01T08:13:53;9.20;;;8.30;;
11042;SDS011;5574;48.786;10.120;2022-09-01T08:16:23;9.63;;;8.63;;
11042;SDS011;5574;48.786;10.120;2022-09-01T08:18:50;10.20;;;9.15;;
11042;SDS011;5574;48.786;10.120;2022-09-01T08:21:18;9.13;;;8.23;;
11042;SDS011;5574;48.786;10.120;2022-09-01T08:23:47;9.32;;;8.10;;
11042;SDS011;5574;48.786;10.120;2022-09-01T08:26:14;9.25;;;8.43;;
11042;SDS011;5574;48.786;10.120;2022-09-01T08:28:43;9.48;;;8.60;;
11042;SDS011;5574;48.786;10.120;2022-09-01T08:31:10;11.55;;;9.07;;
11042;SDS011;5574;48.786;10.120;2022-09-01T08:33:39;9.10;;;8.20;;
11042;SDS011;5574;48.786;10.120;2022-09-01T08:36:07;10.35;;;9.45;;
11042;SDS011;5574;48.786;10.120;2022-09-01T08:38:37;19.50;;;10.02;;
11042;SDS011;5574;48.786;10.120;2022-09-01T08:41:05;10.43;;;9.27;;
11042;SDS011;5574;48.786;10.120;2022-09-01T08:43:45;8.95;;;8.18;;
11042;SDS011;5574;48.786;10.120;2022-09-01T08:46:23;8.98;;;8.18;;
11042;SDS011;5574;48.786;10.120;2022-09-01T08:48:53;9.57;;;8.77;;
11042;SDS011;5574;48.786;10.120;2022-09-01T08:51:22;8.82;;;8.02;;
11042;SDS011;5574;48.786;10.120;2022-09-01T08:53:58;9.32;;;8.43;;
11042;SDS011;5574;48.786;10.120;2022-09-01T08:56:30;9.25;;;8.55;;
11042;SDS011;5574;48.786;10.120;2022-09-01T08:59:00;9.93;;;7.97;;
11042;SDS011;5574;48.786;10.120;2022-09-01T09:01:28;10.38;;;8.35;;
11042;SDS011;5574;48.786;10.120;2022-09-01T09:04:07;10.88;;;8.13;;
11042;SDS011;5574;48.786;10.120;2022-09-01T09:06:46;8.05;;;7.25;;
11042;SDS011;5574;48.786;10.120;2022-09-01T09:09:21;9.13;;;7.35;;
11042;SDS011;5574;48.786;10.120;2022-09-01T09:12:03;8.98;;;8.05;;
11042;SDS011;5574;48.786;10.120;2022-09-01T09:15:02;8.93;;;7.00;;
11042;SDS011;5574;48.786;10.120;2022-09-01T09:17:36;11.90;;;7.90;;
11042;SDS011;5574;48.786;10.120;2022-09-01T09:20:05;10.35;;;7.78;;
11042;SDS011;5574;48.786;10.120;2022-09-01T09:22:33;19.23;;;8.63;;
11042;SDS011;5574;48.786;10.120;2022-09-01T09:25:03;7.13;;;6.38;;
11042;SDS011;5574;48.786;10.120;2022-09-01T09:27:35;9.90;;;5.95;;
11042;SDS011;5574;48.786;10.120;2022-09-01T09:30:04;6.00;;;5.60;;
11042;SDS011;5574;48.786;10.120;2022-09-01T09:32:44;6.50;;;5.90;;
11042;SDS011;5574;48.786;10.120;2022-09-01T09:35:18;18.95;;;7.50;;
11042;SDS011;5574;48.786;10.120;2022-09-01T09:37:49;6.25;;;5.65;;
11042;SDS011;5574;48.786;10.120;2022-09-01T09:40:18;6.75;;;6.18;;
11042;SDS011;5574;48.786;10.120;2022-09-01T09:42:59;6.75;;;5.70;;
11042;SDS011;5574;48.786;10.120;2022-09-01T09:45:32;16.55;;;7.65;;
11042;SDS011;5574;48.786;10.120;2022-09-01T09:48:03;6.68;;;6.07;;
11042;SDS011;5574;48.786;10.120;2022-09-01T09:50:33;8.35;;;6.18;;
11042;SDS011;5574;48.786;10.120;2022-09-01T09:53:10;6.28;;;5.70;;
11042;SDS011;5574;48.786;10.120;2022-09-01T09:55:50;6.55;;;6.00;;
11042;SDS011;5574;48.786;10.120;2022-09-01T09:58:20;7.07;;;6.28;;
11042;SDS011;5574;48.786;10.120;2022-09-01T10:01:00;12.20;;;6.78;;
11042;SDS011;5574;48.786;10.120;2022-09-01T10:03:33;6.57;;;6.03;;
11042;SDS011;5574;48.786;10.120;2022-09-01T10:06:02;7.43;;;6.70;;
11042;SDS011;5574;48.786;10.120;2022-09-01T10:08:36;13.40;;;7.28;;
11042;SDS011;5574;48.786;10.120;2022-09-01T10:11:10;9.98;;;7.07;;
11042;SDS011;5574;48.786;10.120;2022-09-01T10:13:50;10.98;;;7.82;;
11042;SDS011;5574;48.786;10.120;2022-09-01T10:16:18;14.18;;;8.88;;
11042;SDS011;5574;48.786;10.120;2022-09-01T10:18:50;17.52;;;8.68;;
11042;SDS011;5574;48.786;10.120;2022-09-01T10:21:25;10.45;;;8.32;;
11042;SDS011;5574;48.786;10.120;2022-09-01T10:23:57;8.77;;;7.97;;
11042;SDS011;5574;48.786;10.120;2022-09-01T10:26:26;8.10;;;7.30;;
11042;SDS011;5574;48.786;10.120;2022-09-01T10:28:59;8.30;;;7.50;;
11042;SDS011;5574;48.786;10.120;2022-09-01T10:31:31;7.72;;;7.00;;
11042;SDS011;5574;48.786;10.120;2022-09-01T10:33:59;7.68;;;6.90;;
11042;SDS011;5574;48.786;10.120;2022-09-01T10:36:28;7.68;;;7.03;;
11042;SDS011;5574;48.786;10.120;2022-09-01T10:38:56;24.15;;;8.98;;
11042;SDS011;5574;48.786;10.120;2022-09-01T10:44:17;8.48;;;7.78;;
11042;SDS011;5574;48.786;10.120;2022-09-01T10:46:46;7.85;;;6.97;;
11042;SDS011;5574;48.786;10.120;2022-09-01T10:49:20;7.40;;;6.70;;
11042;SDS011;5574;48.786;10.120;2022-09-01T10:52:02;7.75;;;7.07;;
11042;SDS011;5574;48.786;10.120;2022-09-01T10:57:27;7.30;;;6.70;;
11042;SDS011;5574;48.786;10.120;2022-09-01T11:06:16;6.53;;;6.00;;
11042;SDS011;5574;48.786;10.120;2022-09-01T11:08:59;8.45;;;6.70;;
11042;SDS011;5574;48.786;10.120;2022-09-01T11:11:30;9.32;;;6.95;;
11042;SDS011;5574;48.786;10.120;2022-09-01T11:14:16;7.57;;;6.72;;
11042;SDS011;5574;48.786;10.120;2022-09-01T11:17:09;6.35;;;5.85;;
11042;SDS011;5574;48.786;10.120;2022-09-01T11:19:39;7.07;;;6.40;;
11042;SDS011;5574;48.786;10.120;2022-09-01T11:22:21;9.82;;;6.38;;
11042;SDS011;5574;48.786;10.120;2022-09-01T11:24:57;6.13;;;5.63;;
11042;SDS011;5574;48.786;10.120;2022-09-01T11:27:55;9.15;;;5.80;;
11042;SDS011;5574;48.786;10.120;2022-09-01T11:30:32;6.25;;;5.75;;
11042;SDS011;5574;48.786;10.120;2022-09-01T11:33:17;5.22;;;4.82;;
11042;SDS011;5574;48.786;10.120;2022-09-01T11:36:05;5.43;;;4.93;;
11042;SDS011;5574;48.786;10.120;2022-09-01T11:38:41;4.70;;;4.30;;
11042;SDS011;5574;48.786;10.120;2022-09-01T11:41:19;5.00;;;4.22;;
11042;SDS011;5574;48.786;10.120;2022-09-01T11:43:48;7.95;;;4.50;;
11042;SDS011;5574;48.786;10.120;2022-09-01T11:46:18;4.15;;;3.88;;
11042;SDS011;5574;48.786;10.120;2022-09-01T11:48:50;4.43;;;4.07;;
11042;SDS011;5574;48.786;10.120;2022-09-01T11:51:17;5.05;;;4.20;;
11042;SDS011;5574;48.786;10.120;2022-09-01T11:53:45;13.15;;;4.97;;
11042;SDS011;5574;48.786;10.120;2022-09-01T11:56:13;5.00;;;4.57;;
11042;SDS011;5574;48.786;10.120;2022-09-01T11:58:42;6.45;;;5.50;;
11042;SDS011;5574;48.786;10.120;2022-09-01T12:01:10;5.75;;;5.05;;
11042;SDS011;5574;48.786;10.120;2022-09-01T12:03:41;5.40;;;5.00;;
11042;SDS011;5574;48.786;10.120;2022-09-01T12:06:10;4.82;;;4.43;;
11042;SDS011;5574;48.786;10.120;2022-09-01T12:08:49;5.10;;;4.60;;
11042;SDS011;5574;48.786;10.120;2022-09-01T12:11:19;5.05;;;4.55;;
11042;SDS011;5574;48.786;10.120;2022-09-01T12:13:58;4.60;;;4.30;;
11042;SDS011;5574;48.786;10.120;2022-09-01T12:16:27;4.90;;;4.43;;
11042;SDS011;5574;48.786;10.120;2022-09-01T12:18:56;5.38;;;4.88;;
11042;SDS011;5574;48.786;10.120;2022-09-01T12:21:25;5.03;;;4.63;;
11042;SDS011;5574;48.786;10.120;2022-09-01T12:23:54;5.18;;;4.78;;
11042;SDS011;5574;48.786;10.120;2022-09-01T12:26:37;5.28;;;4.70;;
11042;SDS011;5574;48.786;10.120;2022-09-01T12:29:04;5.28;;;4.78;;
11042;SDS011;5574;48.786;10.120;2022-09-01T12:31:32;6.50;;;5.22;;
11042;SDS011;5574;48.786;10.120;2022-09-01T12:34:00;5.30;;;4.80;;
11042;SDS011;5574;48.786;10.120;2022-09-01T12:36:29;5.70;;;5.30;;
11042;SDS011;5574;48.786;10.120;2022-09-01T12:41:59;4.63;;;4.32;;
11042;SDS011;5574;48.786;10.120;2022-09-01T12:44:42;5.72;;;5.32;;
11042;SDS011;5574;48.786;10.120;2022-09-01T12:53:54;5.47;;;5.00;;
11042;SDS011;5574;48.786;10.120;2022-09-01T12:56:45;5.60;;;4.88;;
11042;SDS011;5574;48.786;10.120;2022-09-01T12:59:19;5.30;;;4.90;;
11042;SDS011;5574;48.786;10.120;2022-09-01T13:01:48;6.80;;;5.10;;
11042;SDS011;5574;48.786;10.120;2022-09-01T13:04:22;5.20;;;4.82;;
11042;SDS011;5574;48.786;10.120;2022-09-01T13:06:52;5.88;;;5.38;;
11042;SDS011;5574;48.786;10.120;2022-09-01T13:09:21;5.20;;;4.82;;
11042;SDS011;5574;48.786;10.120;2022-09-01T13:11:48;5.40;;;5.00;;
11042;SDS011;5574;48.786;10.120;2022-09-01T13:14:15;9.02;;;5.88;;
11042;SDS011;5574;48.786;10.120;2022-09-01T13:16:43;5.50;;;5.10;;
11042;SDS011;5574;48.786;10.120;2022-09-01T13:19:10;5.10;;;4.80;;
11042;SDS011;5574;48.786;10.120;2022-09-01T13:21:37;5.50;;;5.10;;
11042;SDS011;5574;48.786;10.120;2022-09-01T13:24:04;4.68;;;4.38;;
11042;SDS011;5574;48.786;10.120;2022-09-01T13:26:34;8.00;;;5.60;;
11042;SDS011;5574;48.786;10.120;2022-09-01T13:29:01;6.07;;;5.47;;
11042;SDS011;5574;48.786;10.120;2022-09-01T13:31:27;7.05;;;4.88;;
11042;SDS011;5574;48.786;10.120;2022-09-01T13:33:55;7.07;;;5.57;;
11042;SDS011;5574;48.786;10.120;2022-09-01T13:36:23;7.30;;;5.72;;
11042;SDS011;5574;48.786;10.120;2022-09-01T13:38:49;6.45;;;5.20;;
11042;SDS011;5574;48.786;10.120;2022-09-01T13:41:16;5.60;;;5.07;;
11042;SDS011;5574;48.786;10.120;2022-09-01T13:43:44;5.30;;;4.90;;
11042;SDS011;5574;48.786;10.120;2022-09-01T13:46:11;5.45;;;5.05;;
11042;SDS011;5574;48.786;10.120;2022-09-01T13:48:39;6.65;;;5.70;;
11042;SDS011;5574;48.786;10.120;2022-09-01T13:51:05;5.38;;;4.93;;
11042;SDS011;5574;48.786;10.120;2022-09-01T13:53:34;5.30;;;4.80;;
11042;SDS011;5574;48.786;10.120;2022-09-01T13:56:00;5.35;;;4.95;;
11042;SDS011;5574;48.786;10.120;2022-09-01T13:58:27;5.40;;;5.10;;
11042;SDS011;5574;48.786;10.120;2022-09-01T14:00:55;5.30;;;4.80;;
11042;SDS011;5574;48.786;10.120;2022-09-01T14:03:23;8.20;;;7.50;;
11042;SDS011;5574;48.786;10.120;2022-09-01T14:05:50;6.70;;;6.10;;
11042;SDS011;5574;48.786;10.120;2022-09-01T14:08:18;6.70;;;6.10;;
11042;SDS011;5574;48.786;10.120;2022-09-01T14:10:47;6.00;;;5.50;;
11042;SDS011;5574;48.786;10.120;2022-09-01T14:13:15;5.80;;;5.30;;
11042;SDS011;5574;48.786;10.120;2022-09-01T14:15:44;5.25;;;4.80;;
11042;SDS011;5574;48.786;10.120;2022-09-01T14:18:13;5.63;;;5.13;;
11042;SDS011;5574;48.786;10.120;2022-09-01T14:20:42;5.30;;;4.80;;
11042;SDS011;5574;48.786;10.120;2022-09-01T14:23:10;7.90;;;5.30;;
11042;SDS011;5574;48.786;10.120;2022-09-01T14:25:41;5.70;;;5.15;;
11042;SDS011;5574;48.786;10.120;2022-09-01T14:28:09;5.35;;;4.95;;
11042;SDS011;5574;48.786;10.120;2022-09-01T14:30:38;5.13;;;4.70;;
11042;SDS011;5574;48.786;10.120;2022-09-01T14:33:06;5.80;;;4.60;;
11042;SDS011;5574;48.786;10.120;2022-09-01T14:35:37;5.13;;;4.72;;
11042;SDS011;5574;48.786;10.120;2022-09-01T14:38:05;4.35;;;4.05;;
11042;SDS011;5574;48.786;10.120;2022-09-01T14:40:32;4.35;;;3.95;;
11042;SDS011;5574;48.786;10.120;2022-09-01T14:43:01;5.65;;;3.30;;
11042;SDS011;5574;48.786;10.120;2022-09-01T14:45:28;3.35;;;3.15;;
11042;SDS011;5574;48.786;10.120;2022-09-01T14:47:56;3.33;;;3.03;;
11042;SDS011;5574;48.786;10.120;2022-09-01T14:50:24;3.42;;;3.22;;
11042;SDS011;5574;48.786;10.120;2022-09-01T14:52:54;3.08;;;2.88;;
11042;SDS011;5574;48.786;10.120;2022-09-01T14:55:23;3.00;;;2.80;;
11042;SDS011;5574;48.786;10.120;2022-09-01T14:57:52;3.22;;;2.92;;
11042;SDS011;5574;48.786;10.120;2022-09-01T15:00:20;2.95;;;2.70;;
11042;SDS011;5574;48.786;10.120;2022-09-01T15:02:48;4.72;;;3.15;;
11042;SDS011;5574;48.786;10.120;2022-09-01T15:05:15;3.47;;;3.17;;
11042;SDS011;5574;48.786;10.120;2022-09-01T15:07:42;3.00;;;2.78;;
11042;SDS011;5574;48.786;10.120;2022-09-01T15:10:11;3.03;;;2.63;;
11042;SDS011;5574;48.786;10.120;2022-09-01T15:12:40;3.13;;;2.92;;
11042;SDS011;5574;48.786;10.120;2022-09-01T15:15:07;4.53;;;3.03;;